Time;durP1;ratioP1;P1;durP2;ratioP2;P2;SDS_P1;SDS_P2;PMS_P1;PMS_P2;Temp;Humidity;BMP_temperature;BMP_pressure;BME280_temperature;BME280_humidity;BME280_pressure;Samples;Min_cycle;Max_cycle;Signal;HPM_P1;HPM_P2
2022/07/09 00:01:39;;;;;;;15.13;11.93;;;;;;;15.68;91.38;102722.88;5071793;28;20060;-76
2022/07/09 00:04:04;;;;;;;14.67;11.60;;;;;;;15.69;91.37;102716.38;5063096;28;20047;-76
2022/07/09 00:06:31;;;;;;;15.17;11.37;;;;;;;15.61;91.24;102711.06;5092349;28;20066;-76
2022/07/09 00:08:57;;;;;;;14.43;11.20;;;;;;;15.70;90.63;102717.19;5092422;28;20360;-76
2022/07/09 00:11:22;;;;;;;15.33;10.87;;;;;;;15.68;90.16;102714.69;5089090;28;20039;-76
2022/07/09 00:13:48;;;;;;;15.60;12.17;;;;;;;15.61;90.98;102712.94;5092722;28;20099;-76
2022/07/09 00:16:13;;;;;;;12.30;9.90;;;;;;;15.53;90.55;102714.78;5095173;28;20019;-76
2022/07/09 00:18:38;;;;;;;14.73;11.30;;;;;;;15.57;90.92;102723.44;5093150;28;20071;-76
2022/07/09 00:21:04;;;;;;;16.73;12.43;;;;;;;15.57;91.57;102720.72;5094104;28;20061;-75
2022/07/09 00:23:29;;;;;;;16.63;12.10;;;;;;;15.53;91.97;102720.25;5093269;28;20040;-77
2022/07/09 00:25:55;;;;;;;17.83;13.60;;;;;;;15.56;93.34;102718.16;5092516;28;20028;-76
2022/07/09 00:28:20;;;;;;;17.60;13.90;;;;;;;15.57;93.92;102717.97;5091933;28;20028;-75
2022/07/09 00:30:45;;;;;;;18.73;13.20;;;;;;;15.52;93.08;102713.09;5091738;28;20051;-76
2022/07/09 00:33:11;;;;;;;17.07;12.97;;;;;;;15.49;92.91;102718.09;5092887;28;20040;-76
2022/07/09 00:35:36;;;;;;;17.83;13.47;;;;;;;15.48;93.13;102717.25;5092460;28;20145;-76
2022/07/09 00:38:01;;;;;;;19.07;14.17;;;;;;;15.43;93.51;102713.44;5093247;28;20077;-76
2022/07/09 00:40:27;;;;;;;16.53;13.37;;;;;;;15.41;93.09;102716.38;5093722;28;20486;-76
2022/07/09 00:42:52;;;;;;;19.07;12.63;;;;;;;15.46;92.99;102718.50;5093832;28;20035;-76
2022/07/09 00:45:17;;;;;;;18.00;13.13;;;;;;;15.36;93.12;102716.97;5090852;28;20040;-76
2022/07/09 00:47:43;;;;;;;19.40;12.87;;;;;;;15.29;92.68;102712.50;5092467;28;20080;-76
2022/07/09 00:50:10;;;;;;;18.03;13.37;;;;;;;15.29;92.66;102712.50;5090665;28;20110;-76
2022/07/09 00:52:37;;;;;;;15.93;12.03;;;;;;;15.30;92.23;102712.31;5092894;28;20035;-76
2022/07/09 00:55:05;;;;;;;18.00;12.90;;;;;;;15.24;92.65;102707.63;5093133;28;20031;-76
2022/07/09 00:57:31;;;;;;;19.83;13.50;;;;;;;15.21;93.19;102716.22;5091683;28;20031;-76
2022/07/09 00:59:57;;;;;;;16.47;12.23;;;;;;;15.20;92.83;102709.06;5091622;28;20344;-76
2022/07/09 01:02:23;;;;;;;15.70;12.23;;;;;;;15.13;93.20;102713.63;5091715;28;20031;-76
2022/07/09 01:04:48;;;;;;;17.90;13.50;;;;;;;15.07;92.89;102698.03;5091524;28;20044;-76
2022/07/09 01:07:13;;;;;;;18.33;12.90;;;;;;;15.11;93.34;102710.22;5092717;28;20016;-76
2022/07/09 01:09:39;;;;;;;17.67;13.17;;;;;;;15.10;93.75;102697.66;5092617;28;20453;-76
2022/07/09 01:12:06;;;;;;;16.90;12.50;;;;;;;15.04;94.32;102704.75;5091103;28;20028;-76
2022/07/09 01:14:31;;;;;;;17.87;13.57;;;;;;;15.02;94.43;102706.81;5091840;28;20048;-76
2022/07/09 01:17:03;;;;;;;17.63;13.27;;;;;;;15.02;94.67;102694.00;5091011;28;20063;-76
2022/07/09 01:19:31;;;;;;;15.87;12.77;;;;;;;14.97;94.01;102693.75;5083905;28;20023;-76
2022/07/09 01:21:57;;;;;;;18.57;14.50;;;;;;;15.06;95.13;102686.25;5075077;28;20111;-76
2022/07/09 01:24:23;;;;;;;19.63;14.70;;;;;;;15.05;95.76;102678.28;5091341;28;20035;-76
2022/07/09 01:26:49;;;;;;;19.53;14.17;;;;;;;15.03;95.31;102684.78;5087331;28;20034;-80
2022/07/09 01:29:14;;;;;;;18.10;13.93;;;;;;;15.03;95.22;102682.03;5083181;28;20040;-76
2022/07/09 01:31:39;;;;;;;16.97;12.77;;;;;;;14.95;94.46;102689.53;5082026;28;20031;-76
2022/07/09 01:34:05;;;;;;;16.83;13.30;;;;;;;15.00;94.61;102687.91;5088672;28;20124;-76
2022/07/09 01:36:30;;;;;;;18.60;14.10;;;;;;;14.97;94.73;102682.84;5092424;28;20059;-76
2022/07/09 01:38:55;;;;;;;17.93;13.63;;;;;;;15.00;94.84;102687.91;5090757;28;20452;-76
2022/07/09 01:41:20;;;;;;;18.87;14.40;;;;;;;14.97;94.91;102687.44;5089574;28;20038;-76
2022/07/09 01:43:46;;;;;;;16.33;13.67;;;;;;;14.96;94.24;102674.81;5091952;28;20066;-76
2022/07/09 01:46:11;;;;;;;18.20;13.47;;;;;;;14.87;95.02;102665.13;5089478;28;20067;-76
2022/07/09 01:48:38;;;;;;;19.40;13.73;;;;;;;14.92;94.90;102674.41;5081419;28;20024;-78
2022/07/09 01:51:04;;;;;;;20.07;14.50;;;;;;;14.86;94.88;102669.72;5083250;28;20036;-76
2022/07/09 01:53:29;;;;;;;18.90;14.77;;;;;;;14.87;95.47;102670.56;5081917;28;20039;-79
2022/07/09 01:55:55;;;;;;;18.73;14.10;;;;;;;14.78;95.11;102664.38;5081437;28;20040;-79
2022/07/09 01:58:20;;;;;;;21.23;15.07;;;;;;;14.81;95.38;102673.03;5081325;28;20509;-76
2022/07/09 02:00:46;;;;;;;17.77;13.83;;;;;;;14.75;94.65;102662.88;5082955;28;20044;-76
2022/07/09 02:03:11;;;;;;;17.53;13.60;;;;;;;14.80;94.63;102665.06;5085312;28;20024;-77
2022/07/09 02:05:36;;;;;;;19.93;13.83;;;;;;;14.74;94.87;102666.69;5083884;28;20130;-79
2022/07/09 02:08:02;;;;;;;18.57;13.47;;;;;;;14.69;95.67;102653.59;5085893;28;20119;-76
2022/07/09 02:10:27;;;;;;;18.47;14.67;;;;;;;14.72;96.05;102665.19;5083328;28;20111;-77
2022/07/09 02:12:53;;;;;;;21.97;16.53;;;;;;;14.68;96.92;102654.63;5082429;28;20024;-76
2022/07/09 02:15:19;;;;;;;23.70;17.40;;;;;;;14.76;98.35;102664.59;5083463;28;20032;-78
2022/07/09 02:17:44;;;;;;;21.30;17.67;;;;;;;14.74;99.31;102665.81;5083212;28;20766;-77
2022/07/09 02:20:11;;;;;;;23.00;16.83;;;;;;;14.68;98.94;102660.09;5084180;28;20063;-76
2022/07/09 02:22:37;;;;;;;21.93;17.90;;;;;;;14.73;98.79;102664.97;5084399;28;20059;-77
2022/07/09 02:25:02;;;;;;;23.03;18.13;;;;;;;14.70;98.76;102665.38;5084603;28;20020;-76
2022/07/09 02:27:28;;;;;;;23.63;18.33;;;;;;;14.73;99.23;102655.94;5084628;28;20028;-78
2022/07/09 02:29:53;;;;;;;21.33;17.00;;;;;;;14.67;98.52;102661.16;5084302;28;20411;-76
2022/07/09 02:32:18;;;;;;;21.13;16.40;;;;;;;14.62;97.84;102658.13;5086660;28;20444;-77
2022/07/09 02:34:44;;;;;;;19.93;16.00;;;;;;;14.55;97.39;102651.78;5084990;28;20032;-79
2022/07/09 02:37:10;;;;;;;20.47;15.53;;;;;;;14.61;96.71;102652.88;5086809;28;20476;-77
2022/07/09 02:39:35;;;;;;;21.30;15.83;;;;;;;14.48;95.97;102643.53;5083201;28;20119;-77
2022/07/09 02:42:01;;;;;;;19.60;16.17;;;;;;;14.53;96.56;102640.19;5086591;28;20111;-82
2022/07/09 02:44:26;;;;;;;21.83;17.00;;;;;;;14.46;97.13;102626.50;5084097;28;20059;-76
2022/07/09 02:46:51;;;;;;;20.80;16.83;;;;;;;14.49;97.29;102631.53;5089087;28;20032;-76
2022/07/09 02:49:17;;;;;;;21.57;17.07;;;;;;;14.50;97.45;102630.50;5092008;28;20043;-76
2022/07/09 02:51:42;;;;;;;21.90;17.27;;;;;;;14.45;97.50;102630.25;5086362;28;20032;-76
2022/07/09 02:54:08;;;;;;;21.20;16.50;;;;;;;14.45;97.71;102630.25;5082973;28;20043;-78
2022/07/09 02:56:33;;;;;;;19.27;15.37;;;;;;;14.41;95.62;102633.56;5084975;28;20032;-76
2022/07/09 02:58:59;;;;;;;20.47;15.37;;;;;;;14.38;95.74;102631.25;5085626;28;20165;-78
2022/07/09 03:01:24;;;;;;;20.87;16.03;;;;;;;14.44;95.82;102638.63;5081600;28;20385;-77
2022/07/09 03:03:50;;;;;;;17.60;12.97;;;;;;;14.38;95.78;102628.50;5084684;28;20052;-76
2022/07/09 03:06:15;;;;;;;18.47;13.00;;;;;;;14.42;96.01;102633.38;5087434;28;20054;-77
2022/07/09 03:08:41;;;;;;;14.23;11.13;;;;;;;14.41;95.54;102634.41;5085233;28;20043;-76
2022/07/09 03:11:06;;;;;;;18.03;13.67;;;;;;;14.29;95.70;102623.19;5082990;28;20317;-78
2022/07/09 03:13:33;;;;;;;17.13;13.77;;;;;;;14.09;96.12;102616.63;5090260;28;20028;-77
2022/07/09 03:15:58;;;;;;;15.50;12.50;;;;;;;14.21;96.01;102634.22;5089617;28;20468;-77
2022/07/09 03:18:24;;;;;;;19.90;14.77;;;;;;;14.20;96.47;102635.25;5084623;28;20028;-77
2022/07/09 03:20:50;;;;;;;20.60;15.03;;;;;;;14.15;96.84;102629.50;5085196;28;20065;-76
2022/07/09 03:23:16;;;;;;;15.60;12.77;;;;;;;14.12;96.20;102635.34;5082433;28;20105;-80
2022/07/09 03:25:41;;;;;;;17.07;13.17;;;;;;;14.05;95.42;102616.19;5085578;28;20036;-76
2022/07/09 03:28:07;;;;;;;17.50;12.80;;;;;;;14.08;95.40;102634.06;5082051;28;20137;-78
2022/07/09 03:30:32;;;;;;;16.50;13.50;;;;;;;14.10;95.55;102635.56;5084499;28;20063;-76
2022/07/09 03:32:57;;;;;;;18.37;14.87;;;;;;;14.08;95.57;102634.06;5083935;28;20081;-78
2022/07/09 03:35:23;;;;;;;21.07;15.70;;;;;;;14.01;95.63;102645.69;5081806;28;20043;-76
2022/07/09 03:37:48;;;;;;;20.47;15.97;;;;;;;14.00;96.43;102632.28;5084581;28;20024;-76
2022/07/09 03:40:14;;;;;;;20.57;16.73;;;;;;;14.01;97.06;102629.34;5084229;28;20047;-76
2022/07/09 03:42:39;;;;;;;20.50;16.43;;;;;;;13.91;96.67;102622.50;5081688;28;20048;-77
2022/07/09 03:45:05;;;;;;;19.80;15.93;;;;;;;13.95;96.66;102634.72;5080574;28;20042;-79
2022/07/09 03:47:30;;;;;;;18.57;14.03;;;;;;;13.96;95.57;102630.97;5089718;28;20027;-76
2022/07/09 03:49:55;;;;;;;17.67;14.77;;;;;;;13.86;95.19;102634.00;5091135;28;20024;-76
2022/07/09 03:52:21;;;;;;;18.60;14.40;;;;;;;13.84;95.48;102614.25;5093115;28;20448;-76
2022/07/09 03:54:46;;;;;;;18.90;14.50;;;;;;;13.86;95.67;102620.38;5090866;28;20040;-77
2022/07/09 03:57:11;;;;;;;20.27;14.43;;;;;;;13.85;95.90;102632.28;5092405;28;20034;-76
2022/07/09 03:59:37;;;;;;;20.43;17.00;;;;;;;13.80;96.65;102612.94;5093128;28;20413;-76
2022/07/09 04:02:04;;;;;;;19.47;15.63;;;;;;;13.83;96.82;102620.72;5093047;28;20016;-76
2022/07/09 04:04:29;;;;;;;21.13;15.57;;;;;;;13.80;96.64;102626.56;5083047;28;20039;-77
2022/07/09 04:06:55;;;;;;;20.53;15.30;;;;;;;13.77;96.46;102629.69;5087505;28;20032;-78
2022/07/09 04:09:21;;;;;;;20.10;15.33;;;;;;;13.79;97.26;102628.47;5082007;28;20038;-77
2022/07/09 04:11:46;;;;;;;21.60;16.63;;;;;;;13.74;97.64;102611.81;5082718;28;20028;-77
2022/07/09 04:14:14;;;;;;;20.83;16.27;;;;;;;13.82;97.76;102624.50;5082610;28;20050;-78
2022/07/09 04:16:39;;;;;;;24.37;16.93;;;;;;;13.84;98.23;102622.44;5086446;28;20028;-76
2022/07/09 04:19:05;;;;;;;26.50;19.50;;;;;;;13.88;98.98;102615.56;5092938;28;20155;-76
2022/07/09 04:21:30;;;;;;;24.07;19.20;;;;;;;13.97;99.69;102614.41;5091369;28;20032;-76
2022/07/09 04:23:55;;;;;;;24.47;18.90;;;;;;;14.00;100.00;102610.47;5094132;28;20131;-76
2022/07/09 04:26:21;;;;;;;21.47;16.53;;;;;;;13.99;99.39;102616.94;5083854;28;20154;-76
2022/07/09 04:28:46;;;;;;;25.10;20.67;;;;;;;14.08;99.64;102623.16;5085084;28;20032;-76
2022/07/09 04:31:12;;;;;;;25.80;18.53;;;;;;;14.11;99.51;102622.75;5093120;28;20065;-76
2022/07/09 04:33:37;;;;;;;21.30;16.40;;;;;;;14.06;98.86;102626.06;5084795;28;20051;-77
2022/07/09 04:36:03;;;;;;;26.37;18.77;;;;;;;14.08;99.02;102613.06;5082423;28;20031;-77
2022/07/09 04:38:28;;;;;;;23.90;17.53;;;;;;;14.15;98.84;102621.34;5084161;28;20032;-76
2022/07/09 04:40:54;;;;;;;21.00;17.30;;;;;;;14.08;98.70;102615.81;5081331;28;20028;-80
2022/07/09 04:43:20;;;;;;;21.87;16.93;;;;;;;14.12;98.58;102616.28;5081047;28;20088;-77
2022/07/09 04:45:45;;;;;;;21.10;17.07;;;;;;;14.11;98.68;102626.31;5081330;28;20400;-77
2022/07/09 04:48:11;;;;;;;21.90;17.70;;;;;;;14.14;99.15;102620.50;5093345;28;20042;-77
2022/07/09 04:50:36;;;;;;;23.97;19.00;;;;;;;14.18;99.85;102618.22;5090208;28;20063;-77
2022/07/09 04:53:01;;;;;;;23.33;17.70;;;;;;;14.29;100.00;102620.47;5090517;28;20048;-77
2022/07/09 04:55:27;;;;;;;24.90;19.63;;;;;;;14.40;100.00;102627.28;5090867;28;20115;-77
2022/07/09 04:57:52;;;;;;;25.27;20.17;;;;;;;14.55;100.00;102619.03;5092162;28;20023;-76
2022/07/09 05:00:18;;;;;;;29.37;22.53;;;;;;;14.64;100.00;102612.41;5087609;28;20070;-78
2022/07/09 05:02:44;;;;;;;28.13;23.23;;;;;;;14.78;100.00;102612.53;5082640;28;20032;-80
2022/07/09 05:05:10;;;;;;;30.43;24.03;;;;;;;14.90;100.00;102618.31;5067813;28;20044;-77
2022/07/09 05:07:36;;;;;;;30.33;25.20;;;;;;;14.96;100.00;102615.66;5043913;28;20044;-77
2022/07/09 05:10:02;;;;;;;29.63;25.70;;;;;;;15.11;100.00;102615.53;5062002;28;20130;-77
2022/07/09 05:12:28;;;;;;;32.93;26.80;;;;;;;15.20;100.00;102624.41;5060944;28;20039;-77
2022/07/09 05:14:55;;;;;;;30.80;25.77;;;;;;;15.28;100.00;102607.03;5044060;28;20044;-78
2022/07/09 05:17:20;;;;;;;30.53;24.23;;;;;;;15.45;100.00;102610.28;5062495;28;20036;-77
2022/07/09 05:19:46;;;;;;;29.47;23.73;;;;;;;15.57;100.00;102611.44;5062316;28;20384;-78
2022/07/09 05:22:11;;;;;;;31.13;24.90;;;;;;;15.62;100.00;102611.63;5061116;28;20028;-79
2022/07/09 05:24:37;;;;;;;31.60;25.43;;;;;;;15.68;100.00;102597.19;5060246;28;20059;-77
2022/07/09 05:27:03;;;;;;;33.77;26.97;;;;;;;15.85;100.00;102603.16;5062503;28;20038;-77
2022/07/09 05:29:29;;;;;;;33.83;26.43;;;;;;;15.90;100.00;102605.28;5061230;28;20052;-77
2022/07/09 05:31:54;;;;;;;34.37;27.20;;;;;;;16.02;100.00;102608.28;5061006;28;20800;-80
2022/07/09 05:34:19;;;;;;;30.63;26.10;;;;;;;16.09;99.68;102611.00;5044394;28;20035;-78
2022/07/09 05:36:45;;;;;;;34.57;27.70;;;;;;;16.14;99.69;102603.91;5066334;28;20031;-82
2022/07/09 05:39:10;;;;;;;33.00;28.00;;;;;;;16.20;98.86;102599.50;5065151;28;20479;-77
2022/07/09 05:41:35;;;;;;;36.33;27.83;;;;;;;16.26;97.99;102604.13;5065536;28;20074;-77
2022/07/09 05:44:04;;;;;;;32.67;27.30;;;;;;;16.31;98.59;102606.25;5067097;28;20055;-76
2022/07/09 05:46:29;;;;;;;34.27;27.27;;;;;;;16.30;97.66;102599.91;5053917;28;20028;-77
2022/07/09 05:48:55;;;;;;;35.20;28.37;;;;;;;16.37;97.65;102599.94;5076022;28;20028;-77
2022/07/09 05:51:21;;;;;;;35.27;27.27;;;;;;;16.39;97.22;102597.84;5075128;28;20032;-77
2022/07/09 05:53:46;;;;;;;31.97;26.63;;;;;;;16.37;96.98;102600.78;5077977;28;20070;-76
2022/07/09 05:56:12;;;;;;;31.90;25.60;;;;;;;16.46;96.63;102598.69;5068030;28;20464;-77
2022/07/09 05:58:38;;;;;;;31.57;24.93;;;;;;;16.53;96.35;102601.44;5066017;28;20030;-77
2022/07/09 06:01:04;;;;;;;32.47;26.20;;;;;;;16.56;95.69;102597.44;5065648;28;20180;-76
2022/07/09 06:03:30;;;;;;;31.53;26.10;;;;;;;16.56;95.28;102609.22;5065661;28;20068;-77
2022/07/09 06:05:55;;;;;;;29.00;25.27;;;;;;;16.67;95.39;102602.28;5065022;28;20040;-76
2022/07/09 06:08:21;;;;;;;31.27;25.53;;;;;;;16.75;94.97;102601.25;5056305;28;20039;-77
2022/07/09 06:10:46;;;;;;;29.03;25.00;;;;;;;16.75;94.81;102607.53;5062003;28;20512;-81
2022/07/09 06:13:11;;;;;;;32.23;26.00;;;;;;;16.82;95.17;102615.75;5058087;28;20044;-80
2022/07/09 06:15:37;;;;;;;32.80;26.20;;;;;;;16.88;94.89;102613.03;5058949;28;20041;-81
2022/07/09 06:18:02;;;;;;;32.27;25.53;;;;;;;16.95;94.89;102612.22;5058508;28;20076;-79
2022/07/09 06:20:28;;;;;;;30.40;25.27;;;;;;;16.95;94.32;102612.22;5059195;28;20064;-76
2022/07/09 06:22:53;;;;;;;31.27;26.53;;;;;;;16.98;94.25;102611.78;5059130;28;20135;-77
2022/07/09 06:25:18;;;;;;;32.23;27.27;;;;;;;17.08;94.46;102617.69;5041047;28;20151;-77
2022/07/09 06:27:44;;;;;;;32.17;28.10;;;;;;;17.07;93.62;102610.53;5059082;28;20072;-77
2022/07/09 06:30:09;;;;;;;30.57;27.13;;;;;;;17.19;94.50;102617.03;5058783;28;20132;-76
2022/07/09 06:32:35;;;;;;;33.40;28.00;;;;;;;17.21;93.48;102628.59;5057281;28;20072;-77
2022/07/09 06:35:00;;;;;;;35.13;28.30;;;;;;;17.33;93.42;102626.06;5059200;28;20063;-78
2022/07/09 06:37:26;;;;;;;32.77;28.17;;;;;;;17.38;93.57;102618.06;5058691;28;20037;-76
2022/07/09 06:39:55;;;;;;;32.53;28.07;;;;;;;17.51;93.31;102619.91;5058898;28;20041;-77
2022/07/09 06:42:21;;;;;;;34.60;27.83;;;;;;;17.53;93.02;102617.81;5057017;28;20044;-77
2022/07/09 06:44:46;;;;;;;34.20;28.10;;;;;;;17.70;91.97;102623.63;5062618;28;20024;-75
2022/07/09 06:47:12;;;;;;;32.63;28.13;;;;;;;17.70;91.81;102626.38;5050521;28;20031;-76
2022/07/09 06:49:38;;;;;;;32.03;27.17;;;;;;;17.79;92.51;102629.75;5070554;28;20028;-76
2022/07/09 06:52:04;;;;;;;33.30;27.03;;;;;;;17.82;91.60;102618.31;5068505;28;20020;-76
2022/07/09 06:54:29;;;;;;;32.00;25.53;;;;;;;17.94;90.35;102614.91;5056656;28;20076;-77
2022/07/09 06:56:56;;;;;;;33.70;27.07;;;;;;;18.13;90.72;102613.13;5058007;28;20702;-78
2022/07/09 06:59:22;;;;;;;30.40;25.60;;;;;;;18.36;90.90;102618.94;5058041;28;20090;-77
2022/07/09 07:01:48;;;;;;;27.60;22.40;;;;;;;18.39;89.29;102618.47;5056271;28;20472;-78
2022/07/09 07:04:14;;;;;;;27.63;22.65;;;;;;;18.59;89.15;102620.25;5057841;28;20106;-76
2022/07/09 07:06:41;;;;;;;25.38;19.63;;;;;;;18.61;85.75;102620.84;5057366;28;20033;-78
2022/07/09 07:09:06;;;;;;;24.75;21.88;;;;;;;18.69;86.97;102619.75;5057768;28;20494;-78
2022/07/09 07:11:31;;;;;;;26.27;21.45;;;;;;;18.77;86.13;102624.09;5039818;28;20081;-78
2022/07/09 07:13:57;;;;;;;23.88;19.58;;;;;;;18.86;84.99;102617.28;5065991;28;20032;-76
2022/07/09 07:16:22;;;;;;;23.00;19.77;;;;;;;18.98;85.25;102615.50;5037751;28;20032;-79
2022/07/09 07:18:47;;;;;;;24.25;20.63;;;;;;;19.27;85.55;102615.88;5058066;28;20028;-79
2022/07/09 07:21:13;;;;;;;23.33;19.40;;;;;;;19.60;85.78;102611.91;5058432;28;20044;-79
2022/07/09 07:23:38;;;;;;;23.58;19.25;;;;;;;19.73;83.07;102617.25;5058322;28;20048;-76
2022/07/09 07:26:04;;;;;;;20.13;16.20;;;;;;;20.00;82.46;102616.94;5058179;28;20094;-77
2022/07/09 07:28:29;;;;;;;20.52;15.63;;;;;;;19.99;80.52;102603.41;5058693;28;20044;-78
2022/07/09 07:30:55;;;;;;;22.90;16.77;;;;;;;20.05;79.97;102619.00;5058199;28;20135;-81
2022/07/09 07:33:20;;;;;;;21.77;17.73;;;;;;;20.16;80.32;102625.63;5039440;28;20556;-80
2022/07/09 07:35:45;;;;;;;20.33;16.10;;;;;;;20.14;79.74;102627.75;5057876;28;20033;-76
2022/07/09 07:38:11;;;;;;;19.30;15.07;;;;;;;19.98;79.04;102627.34;5071875;28;20051;-77
2022/07/09 07:40:36;;;;;;;20.85;14.82;;;;;;;19.91;79.24;102626.59;5057684;28;20047;-76
2022/07/09 07:43:02;;;;;;;18.70;14.60;;;;;;;19.95;78.77;102632.47;5058376;28;20041;-77
2022/07/09 07:45:28;;;;;;;19.02;13.63;;;;;;;19.84;78.72;102628.56;5057531;28;20410;-77
2022/07/09 07:47:54;;;;;;;19.23;14.13;;;;;;;19.81;78.08;102629.88;5057685;28;20082;-79
2022/07/09 07:50:20;;;;;;;18.75;14.80;;;;;;;19.79;78.02;102623.75;5056829;28;20044;-79
2022/07/09 07:52:46;;;;;;;21.35;16.05;;;;;;;19.81;79.01;102623.53;5057192;28;20044;-78
2022/07/09 07:55:11;;;;;;;20.15;15.48;;;;;;;19.81;79.16;102631.78;5056373;28;20051;-78
2022/07/09 07:57:36;;;;;;;22.40;15.85;;;;;;;19.76;78.14;102626.09;5056313;28;20028;-77
2022/07/09 08:00:04;;;;;;;20.92;16.67;;;;;;;19.77;79.21;102627.78;5057216;28;21653;-78
2022/07/09 08:02:30;;;;;;;21.17;16.27;;;;;;;19.98;78.68;102632.03;5055411;28;20024;-79
2022/07/09 08:04:55;;;;;;;20.05;15.63;;;;;;;20.10;79.42;102621.03;5060343;28;20326;-79
2022/07/09 08:07:20;;;;;;;19.65;15.45;;;;;;;20.44;78.58;102611.25;5077060;28;20032;-78
2022/07/09 08:09:46;;;;;;;20.58;16.67;;;;;;;20.34;75.38;102609.03;5077170;28;20047;-79
2022/07/09 08:12:11;;;;;;;21.13;15.50;;;;;;;20.44;75.11;102602.13;5076426;28;20159;-78
2022/07/09 08:14:36;;;;;;;20.52;15.63;;;;;;;20.47;75.58;102598.94;5076125;28;20036;-80
2022/07/09 08:17:02;;;;;;;21.33;15.90;;;;;;;20.77;78.23;102589.75;5085249;28;20472;-76
2022/07/09 08:19:27;;;;;;;21.25;16.17;;;;;;;20.87;73.55;102588.09;5077997;28;20337;-78
2022/07/09 08:21:53;;;;;;;20.67;14.43;;;;;;;21.08;73.05;102586.66;5077456;28;20410;-79
2022/07/09 08:24:18;;;;;;;23.65;14.20;;;;;;;21.28;74.85;102579.91;5077135;28;20529;-80
2022/07/09 08:26:43;;;;;;;18.25;13.50;;;;;;;21.49;72.07;102572.13;5077469;28;20036;-79
2022/07/09 08:29:08;;;;;;;17.30;12.63;;;;;;;21.67;70.90;102577.47;5075871;28;20047;-80
2022/07/09 08:31:34;;;;;;;17.48;12.88;;;;;;;21.95;70.29;102572.19;5077101;28;20132;-80
2022/07/09 08:33:59;;;;;;;18.50;13.35;;;;;;;21.91;67.17;102569.13;5076201;28;20031;-80
2022/07/09 08:36:25;;;;;;;15.40;11.15;;;;;;;22.01;66.10;102563.78;5074664;28;20039;-78
2022/07/09 08:38:50;;;;;;;19.30;14.98;;;;;;;22.09;68.33;102563.38;5076409;28;20483;-78
2022/07/09 08:41:19;;;;;;;19.13;14.65;;;;;;;22.29;70.46;102573.13;5076858;28;20047;-79
2022/07/09 08:43:49;;;;;;;19.17;14.25;;;;;;;22.07;66.46;102571.06;5076066;28;20097;-79
2022/07/09 08:46:15;;;;;;;18.55;12.55;;;;;;;22.08;65.19;102569.16;5078056;28;20044;-77
2022/07/09 08:48:43;;;;;;;17.25;13.18;;;;;;;21.98;67.46;102564.28;5094533;28;20059;-77
2022/07/09 08:51:09;;;;;;;20.63;14.82;;;;;;;22.13;67.09;102565.66;5094375;28;20030;-77
2022/07/09 08:53:40;;;;;;;21.00;15.23;;;;;;;22.19;67.96;102581.22;5092993;28;20028;-77
2022/07/09 08:56:06;;;;;;;20.52;14.50;;;;;;;22.18;67.04;102560.19;5094303;28;20051;-77
2022/07/09 09:01:53;;;;;;;18.20;14.00;;;;;;;21.89;66.88;102576.78;5094109;28;20046;-77
2022/07/09 09:04:19;;;;;;;18.63;13.95;;;;;;;21.84;69.04;102580.31;5093895;28;20499;-77
2022/07/09 09:06:44;;;;;;;17.55;13.20;;;;;;;21.74;67.28;102582.84;5092899;28;20036;-78
2022/07/09 09:09:17;;;;;;;17.58;11.95;;;;;;;21.55;67.83;102582.19;5093613;28;20027;-78
2022/07/09 09:11:42;;;;;;;18.07;12.73;;;;;;;21.43;67.95;102568.38;5093835;28;20034;-78
2022/07/09 09:14:19;;;;;;;18.67;13.85;;;;;;;21.45;69.46;102587.47;5091686;28;20379;-78
2022/07/09 09:16:44;;;;;;;19.58;15.02;;;;;;;21.29;68.83;102575.25;5081498;28;20165;-78
2022/07/09 09:19:10;;;;;;;19.67;15.02;;;;;;;21.07;69.88;102562.94;5080531;28;20139;-78
2022/07/09 09:21:37;;;;;;;18.13;13.18;;;;;;;21.12;69.22;102572.38;5080791;28;20036;-78
2022/07/09 09:24:03;;;;;;;19.20;14.05;;;;;;;21.06;69.74;102575.03;5081246;28;20040;-78
2022/07/09 09:26:28;;;;;;;20.10;14.32;;;;;;;21.06;70.74;102574.19;5082025;28;20058;-78
2022/07/09 09:29:00;;;;;;;21.35;16.35;;;;;;;20.94;70.65;102570.63;5083315;28;20028;-77
2022/07/09 09:31:35;;;;;;;20.08;16.73;;;;;;;20.86;72.19;102569.03;5080268;28;20031;-78
2022/07/09 09:34:07;;;;;;;22.65;17.25;;;;;;;20.85;73.24;102568.22;5088285;28;20090;-77
2022/07/09 09:36:36;;;;;;;19.77;14.38;;;;;;;20.82;71.80;102559.59;5078482;28;20048;-80
2022/07/09 09:39:22;;;;;;;20.80;14.30;;;;;;;20.88;72.67;102572.41;5075495;28;20032;-77
2022/07/09 09:41:51;;;;;;;20.88;14.93;;;;;;;20.79;74.57;102579.34;5076046;28;20070;-77
2022/07/09 09:44:21;;;;;;;19.17;14.45;;;;;;;20.70;74.15;102576.13;5075260;28;20048;-77
2022/07/09 09:46:47;;;;;;;18.98;14.48;;;;;;;20.63;74.01;102575.34;5075943;28;20035;-79
2022/07/09 09:49:15;;;;;;;19.17;15.55;;;;;;;20.42;73.90;102561.06;5074841;28;20039;-80
2022/07/09 09:51:51;;;;;;;18.25;14.77;;;;;;;20.61;72.65;102578.34;5075934;28;20062;-79
2022/07/09 09:54:18;;;;;;;17.45;13.38;;;;;;;20.64;73.53;102571.53;5074990;28;20036;-78
2022/07/09 09:56:44;;;;;;;20.40;15.05;;;;;;;20.77;75.78;102570.47;5075349;28;20567;-77
2022/07/09 09:59:12;;;;;;;19.17;15.68;;;;;;;20.94;72.51;102563.16;5075303;28;20028;-79
2022/07/09 10:01:40;;;;;;;23.63;15.27;;;;;;;21.25;76.06;102558.34;5075012;28;20494;-78
2022/07/09 10:04:06;;;;;;;20.65;14.55;;;;;;;21.51;71.91;102564.41;5075010;28;20079;-82
2022/07/09 10:06:36;;;;;;;18.88;14.43;;;;;;;21.59;72.16;102569.59;5075382;28;20601;-80
2022/07/09 10:09:03;;;;;;;19.42;14.30;;;;;;;21.59;72.41;102562.13;5074905;28;20669;-77
2022/07/09 10:11:46;;;;;;;18.42;14.63;;;;;;;21.66;71.69;102559.22;5091874;28;20115;-77
2022/07/09 10:14:23;;;;;;;20.25;13.63;;;;;;;21.90;71.32;102559.16;5088596;28;20052;-83
2022/07/09 10:16:50;;;;;;;16.25;12.93;;;;;;;21.93;69.72;102561.41;5075061;28;20124;-81
2022/07/09 10:19:29;;;;;;;17.88;13.25;;;;;;;22.02;70.04;102557.19;5074765;28;20036;-79
2022/07/09 10:21:56;;;;;;;17.75;14.88;;;;;;;21.78;69.42;102541.81;5075155;28;20075;-77
2022/07/09 10:24:32;;;;;;;18.13;14.68;;;;;;;21.80;71.84;102556.19;5078262;28;20040;-80
2022/07/09 10:27:06;;;;;;;17.10;13.23;;;;;;;21.68;70.96;102557.09;5078990;28;20044;-79
2022/07/09 10:29:32;;;;;;;17.63;13.18;;;;;;;21.49;68.84;102558.31;5078247;28;20545;-79
2022/07/09 10:31:57;;;;;;;19.17;13.40;;;;;;;21.28;70.38;102555.09;5078881;28;20092;-79
2022/07/09 10:34:53;;;;;;;18.08;13.38;;;;;;;21.44;70.55;102556.28;5078219;28;20684;-80
2022/07/09 10:37:33;;;;;;;18.05;13.30;;;;;;;21.36;71.30;102534.59;5078920;28;21442;-79
2022/07/09 10:40:13;;;;;;;17.55;13.05;;;;;;;21.27;71.85;102550.69;5078077;28;20242;-78
2022/07/09 10:42:41;;;;;;;17.02;14.10;;;;;;;21.14;72.44;102548.19;5078520;28;20040;-80
2022/07/09 10:45:21;;;;;;;19.10;14.48;;;;;;;21.48;73.29;102546.44;5074589;28;20061;-82
2022/07/09 10:47:54;;;;;;;16.27;12.02;;;;;;;21.91;75.38;102558.09;5077929;28;20463;-81
2022/07/09 10:50:19;;;;;;;12.02;8.98;;;;;;;22.20;70.04;102558.03;5078456;28;20035;-79
2022/07/09 10:52:45;;;;;;;10.48;7.45;;;;;;;22.24;67.24;102553.69;5078571;28;20044;-79
2022/07/09 10:55:11;;;;;;;10.95;7.22;;;;;;;22.48;66.34;102557.19;5078292;28;20070;-80
2022/07/09 10:57:36;;;;;;;9.85;6.80;;;;;;;22.55;64.42;102554.25;5078468;28;20040;-80
2022/07/09 11:00:03;;;;;;;8.20;6.20;;;;;;;22.50;64.13;102557.75;5075754;28;20039;-79
2022/07/09 11:02:28;;;;;;;7.78;5.85;;;;;;;22.51;64.70;102555.84;5077989;28;20047;-81
2022/07/09 11:04:53;;;;;;;8.38;5.70;;;;;;;22.53;63.81;102551.72;5084152;28;20048;-81
2022/07/09 11:07:23;;;;;;;8.13;5.68;;;;;;;22.30;64.55;102555.44;5076677;28;20128;-82
2022/07/09 11:09:49;;;;;;;6.43;5.53;;;;;;;22.24;63.89;102553.69;5077736;28;20479;-81